createdAt,value
2019-05-05T00:01:55.536Z,100835.05
2019-05-05T00:05:05.297Z,100844.31
2019-05-05T00:07:45.360Z,100845.18
2019-05-05T00:10:30.762Z,100837.92
2019-05-05T00:13:17.701Z,100844.64
2019-05-05T00:16:11.858Z,100846.63
2019-05-05T00:18:50.337Z,100845.30
2019-05-05T00:21:28.102Z,100847.81
2019-05-05T00:24:05.329Z,100855.20
2019-05-05T00:26:46.054Z,100849.98
2019-05-05T00:29:25.218Z,100860.64
2019-05-05T00:32:02.483Z,100863.69
2019-05-05T00:34:40.458Z,100868.38
2019-05-05T00:37:17.839Z,100882.39
2019-05-05T00:39:55.581Z,100887.95
2019-05-05T00:42:35.198Z,100888.78
2019-05-05T00:45:14.651Z,100890.41
2019-05-05T00:48:05.271Z,100895.44
2019-05-05T00:50:44.980Z,100897.84
2019-05-05T00:53:22.408Z,100891.21
2019-05-05T00:55:59.926Z,100893.16
2019-05-05T00:58:39.164Z,100892.28
2019-05-05T01:01:45.314Z,100893.42
2019-05-05T01:04:29.099Z,100891.94
2019-05-05T01:07:07.273Z,100895.16
2019-05-05T01:09:45.535Z,100895.38
2019-05-05T01:12:24.455Z,100897.09
2019-05-05T01:15:01.858Z,100895.44
2019-05-05T01:17:39.665Z,100883.09
2019-05-05T01:20:17.483Z,100876.19
2019-05-05T01:22:55.499Z,100877.34
2019-05-05T01:25:34.695Z,100888.43
2019-05-05T01:28:14.235Z,100891.84
2019-05-05T01:30:54.994Z,100894.47
2019-05-05T01:33:51.855Z,100897.17
2019-05-05T01:36:29.992Z,100897.27
2019-05-05T01:39:25.120Z,100908.84
2019-05-05T01:42:04.873Z,100907.97
2019-05-05T01:44:44.822Z,100913.26
2019-05-05T01:47:25.272Z,100914.44
2019-05-05T01:50:16.736Z,100907.38
2019-05-05T01:52:40.827Z,100914.30
2019-05-05T01:55:20.330Z,100914.67
2019-05-05T01:57:58.179Z,100917.36
2019-05-05T02:00:35.706Z,100913.38
2019-05-05T02:03:14.755Z,100906.73
2019-05-05T02:05:54.992Z,100910.12
2019-05-05T02:08:34.941Z,100912.64
2019-05-05T02:11:15.604Z,100905.79
2019-05-05T02:13:54.548Z,100904.67
2019-05-05T02:16:34.534Z,100904.00
2019-05-05T02:19:11.169Z,100905.42
2019-05-05T02:21:48.656Z,100910.01
2019-05-05T02:24:25.807Z,100906.80
2019-05-05T02:27:05.868Z,100906.31
2019-05-05T02:30:16.235Z,100903.86
2019-05-05T02:33:02.421Z,100903.22
2019-05-05T02:35:39.739Z,100899.58
2019-05-05T02:38:17.493Z,100898.75
2019-05-05T02:40:55.436Z,100890.44
2019-05-05T02:43:34.558Z,100886.22
2019-05-05T02:46:20.431Z,100879.70
2019-05-05T02:48:59.493Z,100874.30
2019-05-05T02:51:37.078Z,100872.95
2019-05-05T02:54:14.862Z,100871.80
2019-05-05T02:56:54.217Z,100865.42
2019-05-05T02:59:38.681Z,100864.02
2019-05-05T03:02:19.302Z,100863.00
2019-05-05T03:04:57.189Z,100855.36
2019-05-05T03:07:34.504Z,100850.83
2019-05-05T03:10:14.082Z,100854.87
2019-05-05T03:12:51.599Z,100842.97
2019-05-05T03:15:49.757Z,100846.08
2019-05-05T03:18:27.993Z,100840.00
2019-05-05T03:21:07.437Z,100836.87
2019-05-05T03:23:46.336Z,100836.77
2019-05-05T03:26:24.347Z,100828.60
2019-05-05T03:29:04.795Z,100829.38
2019-05-05T03:31:45.890Z,100831.01
2019-05-05T03:34:24.090Z,100820.75
2019-05-05T03:37:01.473Z,100821.45
2019-05-05T03:39:40.352Z,100809.27
2019-05-05T03:42:33.804Z,100810.28
2019-05-05T03:45:24.739Z,100803.53
2019-05-05T03:48:04.682Z,100801.42
2019-05-05T03:50:44.509Z,100800.18
2019-05-05T03:53:24.433Z,100803.85
2019-05-05T03:56:03.805Z,100795.42
2019-05-05T03:58:40.251Z,100791.17
2019-05-05T04:01:44.105Z,100782.19
2019-05-05T04:04:27.713Z,100782.58
2019-05-05T04:07:05.013Z,100771.19
2019-05-05T04:09:43.793Z,100766.32
2019-05-05T04:12:21.125Z,100761.92
2019-05-05T04:14:59.657Z,100752.28
2019-05-05T04:17:49.779Z,100749.19
2019-05-05T04:20:30.136Z,100746.53
2019-05-05T04:23:07.283Z,100744.38
2019-05-05T04:25:45.831Z,100745.37
2019-05-05T04:28:24.094Z,100742.98
2019-05-05T04:31:01.567Z,100739.11
2019-05-05T04:33:39.184Z,100735.91
2019-05-05T04:36:17.487Z,100731.48
2019-05-05T04:38:55.048Z,100726.73
2019-05-05T04:41:33.799Z,100731.97
2019-05-05T04:44:11.488Z,100724.22
2019-05-05T04:46:50.863Z,100723.08
2019-05-05T04:49:44.530Z,100714.13
2019-05-05T04:52:25.246Z,100714.75
2019-05-05T04:55:03.857Z,100707.43
2019-05-05T04:57:43.705Z,100707.69
2019-05-05T05:00:24.021Z,100707.48
2019-05-05T05:03:20.433Z,100696.81
2019-05-05T05:06:10.478Z,100685.24
2019-05-05T05:08:48.343Z,100693.80
2019-05-05T05:11:25.604Z,100691.00
2019-05-05T05:14:03.873Z,100683.88
2019-05-05T05:16:41.010Z,100687.78
2019-05-05T05:19:18.795Z,100683.53
2019-05-05T05:22:01.644Z,100678.77
2019-05-05T05:24:35.600Z,100682.44
2019-05-05T05:27:13.883Z,100675.47
2019-05-05T05:29:54.423Z,100671.09
2019-05-05T05:32:33.970Z,100672.38
2019-05-05T05:35:11.407Z,100671.02
2019-05-05T05:37:48.584Z,100670.39
2019-05-05T05:40:44.741Z,100661.90
2019-05-05T05:43:36.787Z,100657.17
2019-05-05T05:46:32.970Z,100649.16
2019-05-05T05:49:18.888Z,100644.80
2019-05-05T05:52:12.372Z,100638.58
2019-05-05T05:54:40.601Z,100633.72
2019-05-05T05:57:18.404Z,100628.27
2019-05-05T05:59:55.804Z,100624.37
2019-05-05T06:02:34.086Z,100621.31
2019-05-05T06:05:11.601Z,100626.64
2019-05-05T06:07:49.043Z,100620.35
2019-05-05T06:10:27.621Z,100608.02
2019-05-05T06:13:05.703Z,100600.34
2019-05-05T06:15:44.403Z,100591.61
2019-05-05T06:18:24.325Z,100590.83
2019-05-05T06:21:01.992Z,100588.98
2019-05-05T06:23:40.118Z,100577.56
2019-05-05T06:26:18.538Z,100579.05
2019-05-05T06:28:55.879Z,100568.55
2019-05-05T06:31:34.156Z,100569.03
2019-05-05T06:34:13.962Z,100566.80
2019-05-05T06:36:51.393Z,100548.87
2019-05-05T06:39:28.651Z,100560.47
2019-05-05T06:42:23.679Z,100558.84
2019-05-05T06:45:05.987Z,100553.69
2019-05-05T06:47:45.529Z,100547.83
2019-05-05T06:50:24.288Z,100542.53
2019-05-05T06:53:04.110Z,100532.78
2019-05-05T06:55:44.288Z,100527.83
2019-05-05T06:58:24.160Z,100522.91
2019-05-05T07:01:03.634Z,100517.59
2019-05-05T07:03:40.943Z,100517.73
2019-05-05T07:06:18.558Z,100512.73
2019-05-05T07:08:55.818Z,100506.81
2019-05-05T07:11:34.328Z,100500.17
2019-05-05T07:14:14.129Z,100500.38
2019-05-05T07:16:54.339Z,100490.09
2019-05-05T07:19:31.082Z,100483.78
2019-05-05T07:22:08.555Z,100471.78
2019-05-05T07:24:45.700Z,100468.57
2019-05-05T07:27:24.523Z,100461.30
2019-05-05T07:30:04.868Z,100463.41
2019-05-05T07:32:44.192Z,100459.87
2019-05-05T07:35:56.882Z,100453.23
2019-05-05T07:38:28.457Z,100454.05
2019-05-05T07:41:05.868Z,100446.38
2019-05-05T07:43:43.812Z,100439.77
2019-05-05T07:46:21.347Z,100440.17
2019-05-05T07:48:59.923Z,100433.81
2019-05-05T07:51:38.039Z,100442.39
2019-05-05T07:54:16.010Z,100438.34
2019-05-05T07:56:53.947Z,100437.23
2019-05-05T07:59:33.885Z,100437.62
2019-05-05T08:02:11.850Z,100439.35
2019-05-05T08:04:49.409Z,100436.77
2019-05-05T08:07:26.934Z,100438.66
2019-05-05T08:10:05.195Z,100434.73
2019-05-05T08:12:43.638Z,100436.28
2019-05-05T08:15:23.767Z,100431.18
2019-05-05T08:18:24.193Z,100419.19
2019-05-05T08:21:04.524Z,100418.00
2019-05-05T08:23:47.640Z,100413.15
2019-05-05T08:26:46.510Z,100406.42
2019-05-05T08:32:39.207Z,100408.00
2019-05-05T08:35:17.151Z,100410.03
2019-05-05T08:37:54.658Z,100410.37
2019-05-05T08:40:34.548Z,100399.87
2019-05-05T08:43:13.852Z,100391.30
2019-05-05T08:45:51.816Z,100387.62
2019-05-05T08:48:29.291Z,100394.06
2019-05-05T08:51:07.688Z,100396.49
2019-05-05T08:53:48.179Z,100393.54
2019-05-05T08:56:24.579Z,100393.73
2019-05-05T08:59:03.664Z,100397.43
2019-05-05T09:01:41.436Z,100394.88
2019-05-05T09:04:19.838Z,100396.08
2019-05-05T09:06:58.286Z,100392.61
2019-05-05T09:09:35.453Z,100392.08
2019-05-05T09:12:14.050Z,100396.45
2019-05-05T09:14:53.819Z,100389.69
2019-05-05T09:17:30.907Z,100396.13
2019-05-05T09:20:08.525Z,100380.02
2019-05-05T09:22:46.937Z,100383.70
2019-05-05T09:25:50.012Z,100375.28
2019-05-05T09:28:45.754Z,100374.03
2019-05-05T09:31:24.081Z,100365.40
2019-05-05T09:34:04.167Z,100361.68
2019-05-05T09:36:43.991Z,100364.91
2019-05-05T09:39:23.864Z,100356.57
2019-05-05T09:42:00.886Z,100349.56
2019-05-05T09:44:38.820Z,100344.37
2019-05-05T09:47:16.047Z,100340.83
2019-05-05T09:49:54.976Z,100340.95
2019-05-05T09:52:33.795Z,100330.95
2019-05-05T09:55:13.834Z,100337.33
2019-05-05T09:57:50.965Z,100338.58
2019-05-05T10:00:28.688Z,100330.45
2019-05-05T10:03:06.114Z,100341.48
2019-05-05T10:05:43.935Z,100335.36
2019-05-05T10:08:23.534Z,100340.19
2019-05-05T10:11:00.407Z,100344.53
2019-05-05T10:13:37.776Z,100354.59
2019-05-05T10:16:16.765Z,100351.66
2019-05-05T10:18:54.359Z,100360.12
2019-05-05T10:21:33.783Z,100356.78
2019-05-05T10:24:27.640Z,100366.44
2019-05-05T10:26:58.710Z,100370.36
2019-05-05T10:29:36.440Z,100374.73
2019-05-05T10:32:14.841Z,100381.20
2019-05-05T10:35:04.574Z,100390.64
2019-05-05T10:37:43.969Z,100392.45
2019-05-05T10:40:25.376Z,100398.88
2019-05-05T10:43:04.384Z,100393.10
2019-05-05T10:45:44.049Z,100403.87
2019-05-05T10:48:23.581Z,100399.41
2019-05-05T10:51:01.070Z,100399.48
2019-05-05T10:53:38.523Z,100402.86
2019-05-05T10:56:16.776Z,100404.33
2019-05-05T10:58:54.628Z,100407.91
2019-05-05T11:01:34.219Z,100414.25
2019-05-05T11:04:13.518Z,100421.97
2019-05-05T11:06:50.866Z,100427.09
2019-05-05T11:09:29.100Z,100424.45
2019-05-05T11:12:07.082Z,100428.24
2019-05-05T11:14:45.999Z,100437.83
2019-05-05T11:17:24.818Z,100447.19
2019-05-05T11:20:03.974Z,100461.30
2019-05-05T11:22:43.818Z,100473.15
2019-05-05T11:25:21.089Z,100478.91
2019-05-05T11:27:59.641Z,100474.37
2019-05-05T11:30:43.858Z,100483.37
2019-05-05T11:33:36.143Z,100479.84
2019-05-05T11:36:20.637Z,100484.33
2019-05-05T11:38:58.088Z,100490.73
2019-05-05T11:41:36.383Z,100499.72
2019-05-05T11:44:15.270Z,100510.35
2019-05-05T11:46:54.698Z,100516.69
2019-05-05T11:49:33.690Z,100518.28
2019-05-05T11:52:12.146Z,100528.43
2019-05-05T11:54:49.247Z,100528.97
2019-05-05T11:57:26.553Z,100527.70
2019-05-05T12:00:03.946Z,100530.90
2019-05-05T12:02:44.648Z,100533.62
2019-05-05T12:05:21.892Z,100540.66
2019-05-05T12:07:59.484Z,100552.25
2019-05-05T12:11:10.374Z,100551.54
2019-05-05T12:13:48.483Z,100550.21
2019-05-05T12:16:34.681Z,100562.02
2019-05-05T12:19:13.890Z,100563.89
2019-05-05T12:21:51.421Z,100570.36
2019-05-05T12:24:35.151Z,100580.36
2019-05-05T12:27:22.082Z,100586.81
2019-05-05T12:30:06.832Z,100588.06
2019-05-05T12:32:47.755Z,100587.31
2019-05-05T12:35:27.796Z,100583.55
2019-05-05T12:38:05.382Z,100580.31
2019-05-05T12:40:45.818Z,100582.67
2019-05-05T12:43:24.648Z,100580.31
2019-05-05T12:46:24.220Z,100582.02
2019-05-05T12:49:06.334Z,100588.30
2019-05-05T12:51:44.460Z,100586.18
2019-05-05T12:54:24.406Z,100589.12
2019-05-05T12:57:04.385Z,100600.19
2019-05-05T12:59:44.448Z,100607.46
2019-05-05T13:02:23.515Z,100612.72
2019-05-05T13:05:01.075Z,100610.06
2019-05-05T13:07:39.338Z,100618.88
2019-05-05T13:10:18.081Z,100616.36
2019-05-05T13:12:56.065Z,100621.73
2019-05-05T13:15:34.629Z,100623.87
2019-05-05T13:18:14.030Z,100620.52
2019-05-05T13:21:09.786Z,100629.31
2019-05-05T13:23:56.514Z,100629.31
2019-05-05T13:26:39.307Z,100631.80
2019-05-05T13:29:17.148Z,100640.92
2019-05-05T13:31:54.596Z,100646.95
2019-05-05T13:34:31.563Z,100646.03
2019-05-05T13:37:09.053Z,100650.10
2019-05-05T13:39:47.203Z,100652.62
2019-05-05T13:42:24.821Z,100665.98
2019-05-05T13:45:14.408Z,100661.53
2019-05-05T13:47:51.705Z,100668.84
2019-05-05T13:50:44.528Z,100662.14
2019-05-05T13:53:23.718Z,100654.84
2019-05-05T13:56:11.044Z,100659.61
2019-05-05T13:58:40.625Z,100660.20
2019-05-05T14:01:19.103Z,100660.45
2019-05-05T14:03:57.803Z,100669.72
2019-05-05T14:06:35.760Z,100683.56
2019-05-05T14:09:14.405Z,100697.48
2019-05-05T14:11:53.533Z,100695.47
2019-05-05T14:14:30.861Z,100690.85
2019-05-05T14:17:08.990Z,100686.69
2019-05-05T14:20:00.407Z,100694.61
2019-05-05T14:22:26.350Z,100685.57
2019-05-05T14:25:10.598Z,100689.25
2019-05-05T14:27:48.177Z,100691.94
2019-05-05T14:30:44.346Z,100694.51
2019-05-05T14:33:25.383Z,100701.02
2019-05-05T14:36:16.610Z,100697.70
2019-05-05T14:38:57.622Z,100696.94
2019-05-05T14:41:36.030Z,100697.55
2019-05-05T14:44:13.831Z,100704.52
2019-05-05T14:46:51.188Z,100696.55
2019-05-05T14:49:28.659Z,100700.16
2019-05-05T14:52:06.066Z,100697.90
2019-05-05T14:54:44.356Z,100704.78
2019-05-05T14:57:24.942Z,100720.34
2019-05-05T15:00:04.545Z,100714.67
2019-05-05T15:02:43.857Z,100714.07
2019-05-05T15:05:45.629Z,100713.16
2019-05-05T15:08:54.475Z,100718.06
2019-05-05T15:11:53.836Z,100715.78
2019-05-05T15:14:31.430Z,100711.13
2019-05-05T15:17:09.588Z,100718.52
2019-05-05T15:19:46.677Z,100719.23
2019-05-05T15:22:24.502Z,100732.39
2019-05-05T15:25:04.064Z,100726.83
2019-05-05T15:27:45.120Z,100724.52
2019-05-05T15:30:26.899Z,100730.90
2019-05-05T15:33:04.624Z,100734.48
2019-05-05T15:35:44.502Z,100731.38
2019-05-05T15:38:21.258Z,100734.14
2019-05-05T15:40:58.981Z,100726.76
2019-05-05T15:43:36.493Z,100726.91
2019-05-05T15:46:15.251Z,100723.78
2019-05-05T15:48:54.436Z,100731.16
2019-05-05T15:51:31.663Z,100732.91
2019-05-05T15:54:09.101Z,100725.86
2019-05-05T15:56:46.165Z,100722.03
2019-05-05T15:59:24.837Z,100722.03
2019-05-05T16:02:04.184Z,100719.91
2019-05-05T16:04:41.209Z,100732.60
2019-05-05T16:07:19.034Z,100727.06
2019-05-05T16:09:57.133Z,100734.84
2019-05-05T16:12:39.349Z,100735.52
2019-05-05T16:15:27.696Z,100738.28
2019-05-05T16:18:29.276Z,100729.56
2019-05-05T16:21:26.330Z,100725.12
2019-05-05T16:24:06.295Z,100720.46
2019-05-05T16:26:43.941Z,100728.70
2019-05-05T16:29:21.422Z,100725.68
2019-05-05T16:32:00.883Z,100720.58
2019-05-05T16:34:38.202Z,100718.75
2019-05-05T16:37:15.532Z,100716.70
2019-05-05T16:39:54.336Z,100714.91
2019-05-05T16:42:34.456Z,100713.53
2019-05-05T16:45:13.658Z,100715.32
2019-05-05T16:47:51.186Z,100717.14
2019-05-05T16:50:28.732Z,100716.66
2019-05-05T16:53:06.977Z,100708.50
2019-05-05T16:55:53.740Z,100711.33
2019-05-05T16:58:33.281Z,100710.92
2019-05-05T17:01:14.491Z,100706.52
2019-05-05T17:03:54.341Z,100702.91
2019-05-05T17:06:31.732Z,100697.20
2019-05-05T17:09:09.432Z,100697.05
2019-05-05T17:12:05.751Z,100698.53
2019-05-05T17:15:04.474Z,100687.88
2019-05-05T17:17:57.228Z,100684.23
2019-05-05T17:20:39.047Z,100670.31
2019-05-05T17:23:18.039Z,100674.22
2019-05-05T17:25:56.515Z,100668.33
2019-05-05T17:28:33.646Z,100664.53
2019-05-05T17:31:12.564Z,100658.34
2019-05-05T17:33:50.127Z,100653.53
2019-05-05T17:36:29.640Z,100652.00
2019-05-05T17:39:08.847Z,100641.27
2019-05-05T17:42:14.249Z,100630.41
2019-05-05T17:45:19.617Z,100634.77
2019-05-05T17:48:01.312Z,100625.06
2019-05-05T17:51:15.759Z,100618.11
2019-05-05T17:54:10.533Z,100618.11
2019-05-05T17:56:47.825Z,100617.63
2019-05-05T17:59:26.242Z,100620.79
2019-05-05T18:02:04.715Z,100612.92
2019-05-05T18:04:45.816Z,100607.27
2019-05-05T18:07:31.312Z,100613.94
2019-05-05T18:10:24.076Z,100611.97
2019-05-05T18:13:17.335Z,100607.07
2019-05-05T18:15:57.093Z,100600.75
2019-05-05T18:18:34.316Z,100598.65
2019-05-05T18:21:14.249Z,100600.52
2019-05-05T18:23:51.427Z,100604.16
2019-05-05T18:26:28.934Z,100592.19
2019-05-05T18:29:06.196Z,100595.19
2019-05-05T18:31:43.818Z,100592.94
2019-05-05T18:34:21.200Z,100591.11
2019-05-05T18:36:58.823Z,100582.84
2019-05-05T18:39:36.835Z,100581.01
2019-05-05T18:42:24.402Z,100578.21
2019-05-05T18:45:07.290Z,100572.84
2019-05-05T18:47:45.405Z,100574.02
2019-05-05T18:50:24.417Z,100572.33
2019-05-05T18:53:04.677Z,100568.91
2019-05-05T18:55:44.303Z,100568.57
2019-05-05T18:58:29.687Z,100562.06
2019-05-05T19:01:13.594Z,100563.17
2019-05-05T19:04:09.515Z,100562.25
2019-05-05T19:07:07.002Z,100562.36
2019-05-05T19:09:53.958Z,100550.02
2019-05-05T19:12:26.234Z,100551.30
2019-05-05T19:15:04.438Z,100550.17
2019-05-05T19:17:43.555Z,100548.24
2019-05-05T19:20:29.119Z,100555.65
2019-05-05T19:23:06.608Z,100546.52
2019-05-05T19:25:44.855Z,100546.47
2019-05-05T19:28:23.544Z,100541.02
2019-05-05T19:31:01.144Z,100537.47
2019-05-05T19:33:39.255Z,100538.47
2019-05-05T19:36:17.740Z,100540.16
2019-05-05T19:38:55.299Z,100536.72
2019-05-05T19:41:34.824Z,100537.00
2019-05-05T19:44:14.552Z,100543.38
2019-05-05T19:47:00.478Z,100550.59
2019-05-05T19:49:39.224Z,100549.78
2019-05-05T19:52:16.773Z,100549.16
2019-05-05T19:54:55.349Z,100550.16
2019-05-05T19:57:33.656Z,100555.16
2019-05-05T20:00:12.064Z,100557.38
2019-05-05T20:03:01.349Z,100564.69
2019-05-05T20:05:29.500Z,100566.40
2019-05-05T20:08:07.482Z,100562.48
2019-05-05T20:10:45.086Z,100564.66
2019-05-05T20:13:23.355Z,100568.53
2019-05-05T20:16:24.283Z,100570.17
2019-05-05T20:19:04.211Z,100574.91
2019-05-05T20:21:41.353Z,100577.19
2019-05-05T20:24:18.849Z,100578.94
2019-05-05T20:26:55.911Z,100581.35
2019-05-05T20:29:37.061Z,100577.27
2019-05-05T20:32:13.895Z,100576.61
2019-05-05T20:35:04.375Z,100577.73
2019-05-05T20:37:49.363Z,100568.05
2019-05-05T20:40:31.092Z,100566.45
2019-05-05T20:43:08.458Z,100571.88
2019-05-05T20:45:48.057Z,100574.91
2019-05-05T20:48:25.624Z,100574.91
2019-05-05T20:51:03.534Z,100578.73
2019-05-05T20:53:41.038Z,100572.94
2019-05-05T20:56:19.128Z,100575.16
2019-05-05T20:58:56.119Z,100578.61
2019-05-05T21:01:34.324Z,100580.49
2019-05-05T21:04:14.066Z,100575.33
2019-05-05T21:06:51.931Z,100574.35
2019-05-05T21:09:29.676Z,100567.34
2019-05-05T21:12:08.190Z,100570.84
2019-05-05T21:14:45.391Z,100567.02
2019-05-05T21:17:24.583Z,100563.89
2019-05-05T21:20:04.185Z,100565.97
2019-05-05T21:22:51.491Z,100566.20
2019-05-05T21:25:38.234Z,100568.28
2019-05-05T21:28:15.879Z,100567.72
2019-05-05T21:30:54.097Z,100559.08
2019-05-05T21:33:31.894Z,100560.27
2019-05-05T21:36:09.235Z,100563.85
2019-05-05T21:38:47.336Z,100570.84
2019-05-05T21:41:24.665Z,100575.54
2019-05-05T21:44:03.768Z,100569.92
2019-05-05T21:46:40.794Z,100566.57
2019-05-05T21:49:20.509Z,100564.56
2019-05-05T21:52:16.313Z,100566.83
2019-05-05T21:55:11.270Z,100560.24
2019-05-05T21:58:13.522Z,100565.14
2019-05-05T22:01:08.567Z,100569.63
2019-05-05T22:03:46.103Z,100572.79
2019-05-05T22:06:24.249Z,100579.60
2019-05-05T22:09:01.411Z,100579.41
2019-05-05T22:11:40.101Z,100578.15
2019-05-05T22:14:17.494Z,100582.21
2019-05-05T22:16:56.462Z,100583.09
2019-05-05T22:19:37.261Z,100581.69
2019-05-05T22:22:16.150Z,100580.42
2019-05-05T22:24:54.061Z,100574.91
2019-05-05T22:27:34.549Z,100581.27
2019-05-05T22:30:14.032Z,100585.82
2019-05-05T22:32:51.312Z,100589.54
2019-05-05T22:35:28.714Z,100590.52
2019-05-05T22:38:06.611Z,100588.12
2019-05-05T22:40:44.182Z,100595.53
2019-05-05T22:43:23.911Z,100591.78
2019-05-05T22:46:03.515Z,100593.76
2019-05-05T22:48:43.874Z,100590.77
2019-05-05T22:51:22.040Z,100597.40
2019-05-05T22:53:59.752Z,100602.17
2019-05-05T22:56:37.360Z,100605.56
2019-05-05T22:59:16.298Z,100607.83
2019-05-05T23:01:54.151Z,100612.52
2019-05-05T23:04:40.376Z,100618.26
2019-05-05T23:07:45.476Z,100621.61
2019-05-05T23:10:23.579Z,100632.80
2019-05-05T23:13:00.992Z,100643.28
2019-05-05T23:15:40.009Z,100644.55
2019-05-05T23:18:25.443Z,100648.98
2019-05-05T23:21:15.906Z,100653.30
2019-05-05T23:24:14.321Z,100655.96
2019-05-05T23:26:54.598Z,100652.48
2019-05-05T23:29:33.988Z,100645.11
2019-05-05T23:32:11.379Z,100651.31
2019-05-05T23:34:48.910Z,100653.16
2019-05-05T23:37:26.576Z,100656.14
2019-05-05T23:40:04.071Z,100659.31
2019-05-05T23:42:42.067Z,100664.28
2019-05-05T23:45:19.537Z,100671.94
2019-05-05T23:47:57.006Z,100679.34
2019-05-05T23:50:34.695Z,100685.56
2019-05-05T23:53:13.844Z,100686.36
2019-05-05T23:55:54.408Z,100689.80
2019-05-05T23:58:30.906Z,100693.56
